createdAt,value
2022-11-24T00:03:28.019Z,6.96
2022-11-24T00:08:33.172Z,7.01
2022-11-24T00:13:39.022Z,7.04
2022-11-24T00:18:44.557Z,7.07
2022-11-24T00:23:50.572Z,7.09
2022-11-24T00:28:55.718Z,7.17
2022-11-24T00:34:01.231Z,7.18
2022-11-24T00:39:07.546Z,7.11
2022-11-24T00:44:11.215Z,7.12
2022-11-24T00:49:15.014Z,7.03
2022-11-24T00:54:20.062Z,6.97
2022-11-24T00:59:23.706Z,7.02
2022-11-24T01:04:27.502Z,7.09
2022-11-24T01:09:32.544Z,7.07
2022-11-24T01:14:36.583Z,7.14
2022-11-24T01:19:40.406Z,7.15
2022-11-24T01:24:45.731Z,7.14
2022-11-24T01:29:49.559Z,7.13
2022-11-24T01:34:53.330Z,7.07
2022-11-24T01:39:58.445Z,7.06
2022-11-24T01:45:41.624Z,7.05
2022-11-24T01:50:46.167Z,6.98
2022-11-24T01:55:53.607Z,6.96
2022-11-24T02:00:57.258Z,7.00
2022-11-24T02:06:04.060Z,6.99
2022-11-24T02:11:09.204Z,6.99
2022-11-24T02:16:13.552Z,7.01
2022-11-24T02:21:17.655Z,7.01
2022-11-24T02:26:30.670Z,7.07
2022-11-24T02:31:34.443Z,7.09
2022-11-24T02:36:38.462Z,7.18
2022-11-24T02:41:47.232Z,7.18
2022-11-24T02:46:50.887Z,7.18
2022-11-24T02:51:54.644Z,7.24
2022-11-24T02:56:59.835Z,7.24
2022-11-24T03:02:03.939Z,7.27
2022-11-24T03:07:08.210Z,7.29
2022-11-24T03:12:13.264Z,7.35
2022-11-24T03:17:16.935Z,7.41
2022-11-24T03:22:20.579Z,7.41
2022-11-24T03:27:25.671Z,7.40
2022-11-24T03:32:29.342Z,7.44
2022-11-24T03:37:33.047Z,7.45
2022-11-24T03:42:38.086Z,7.44
2022-11-24T03:47:41.773Z,7.49
2022-11-24T03:52:45.406Z,7.53
2022-11-24T03:57:50.420Z,7.51
2022-11-24T04:02:54.320Z,7.49
2022-11-24T04:07:58.727Z,7.46
2022-11-24T04:13:04.757Z,7.42
2022-11-24T04:18:09.157Z,7.32
2022-11-24T04:23:13.041Z,7.31
2022-11-24T04:28:18.128Z,7.21
2022-11-24T04:33:21.805Z,7.07
2022-11-24T04:39:24.540Z,7.04
2022-11-24T04:43:51.594Z,6.96
2022-11-24T04:48:55.293Z,6.96
2022-11-24T04:53:59.001Z,7.03
2022-11-24T04:59:08.159Z,7.00
2022-11-24T05:04:13.707Z,6.99
2022-11-24T05:09:18.576Z,6.96
2022-11-24T05:14:23.630Z,6.99
2022-11-24T05:19:31.254Z,7.03
2022-11-24T05:24:36.278Z,7.03
2022-11-24T05:29:41.471Z,7.03
2022-11-24T05:34:45.934Z,7.04
2022-11-24T05:39:49.633Z,7.06
2022-11-24T05:44:55.143Z,7.04
2022-11-24T05:49:58.920Z,7.06
2022-11-24T05:55:02.687Z,7.00
2022-11-24T06:00:10.966Z,7.02
2022-11-24T06:05:15.727Z,7.03
2022-11-24T06:10:21.300Z,6.99
2022-11-24T06:15:26.449Z,7.04
2022-11-24T06:20:32.913Z,6.99
2022-11-24T06:25:36.882Z,7.01
2022-11-24T06:30:41.934Z,6.85
2022-11-24T06:35:45.719Z,6.87
2022-11-24T06:40:49.578Z,6.88
2022-11-24T06:45:54.675Z,6.80
2022-11-24T06:51:00.302Z,6.74
2022-11-24T06:56:06.701Z,6.76
2022-11-24T07:01:17.044Z,6.77
2022-11-24T07:06:22.508Z,6.78
2022-11-24T07:11:26.765Z,6.80
2022-11-24T07:16:32.770Z,6.79
2022-11-24T07:21:36.511Z,6.74
2022-11-24T07:26:40.383Z,6.69
2022-11-24T07:31:46.246Z,6.59
2022-11-24T07:36:50.157Z,6.56
2022-11-24T07:41:53.910Z,6.49
2022-11-24T07:46:58.974Z,6.52
2022-11-24T07:52:02.795Z,6.44
2022-11-24T07:57:06.596Z,6.48
2022-11-24T08:02:13.883Z,6.53
2022-11-24T08:07:17.676Z,6.54
2022-11-24T08:12:22.496Z,6.57
2022-11-24T08:17:29.341Z,6.61
2022-11-24T08:22:33.037Z,6.62
2022-11-24T08:27:36.707Z,6.62
2022-11-24T08:32:41.758Z,6.70
2022-11-24T08:37:45.571Z,6.74
2022-11-24T08:42:49.356Z,6.77
2022-11-24T08:47:55.343Z,6.81
2022-11-24T08:52:59.081Z,6.87
2022-11-24T08:58:02.885Z,6.95
2022-11-24T09:03:08.066Z,7.01
2022-11-24T09:08:11.738Z,7.06
2022-11-24T09:13:15.511Z,7.15
2022-11-24T09:18:20.885Z,7.21
2022-11-24T09:23:24.752Z,7.28
2022-11-24T09:28:28.767Z,7.43
2022-11-24T09:33:34.911Z,7.52
2022-11-24T09:38:38.924Z,7.61
2022-11-24T09:43:51.966Z,7.73
2022-11-24T09:48:59.578Z,7.88
2022-11-24T09:54:10.571Z,7.93
2022-11-24T09:59:17.060Z,8.06
2022-11-24T10:04:26.302Z,8.21
2022-11-24T10:09:43.850Z,8.25
2022-11-24T10:15:05.254Z,8.45
2022-11-24T10:20:20.278Z,8.65
2022-11-24T10:25:27.292Z,8.66
2022-11-24T10:30:32.510Z,8.87
2022-11-24T10:35:41.794Z,9.07
2022-11-24T10:40:57.138Z,8.96
2022-11-24T10:46:11.494Z,9.22
2022-11-24T10:51:38.083Z,9.46
2022-11-24T10:56:42.416Z,9.64
2022-11-24T11:01:46.362Z,9.67
2022-11-24T11:06:51.671Z,10.06
2022-11-24T11:11:55.550Z,10.00
2022-11-24T11:17:00.137Z,10.27
2022-11-24T11:22:14.703Z,10.17
2022-11-24T11:27:20.739Z,10.34
2022-11-24T11:37:52.445Z,10.57
2022-11-24T11:43:03.085Z,10.68
2022-11-24T11:48:26.171Z,10.93
2022-11-24T11:53:44.704Z,10.91
2022-11-24T11:59:06.449Z,11.01
2022-11-24T12:04:21.833Z,11.26
2022-11-24T12:09:38.227Z,11.39
2022-11-24T12:15:07.360Z,11.60
2022-11-24T12:20:38.854Z,11.65
2022-11-24T12:25:49.397Z,11.88
2022-11-24T12:31:06.035Z,11.83
2022-11-24T12:36:17.510Z,12.11
2022-11-24T12:41:42.948Z,12.41
2022-11-24T12:46:54.541Z,12.53
2022-11-24T12:52:04.234Z,12.80
2022-11-24T12:57:16.043Z,13.68
2022-11-24T13:02:32.508Z,14.05
2022-11-24T13:07:44.173Z,15.57
2022-11-24T13:12:56.844Z,15.89
2022-11-24T13:18:10.611Z,17.11
2022-11-24T13:23:25.738Z,17.23
2022-11-24T13:29:08.878Z,17.04
2022-11-24T13:34:55.884Z,15.39
2022-11-24T13:40:00.999Z,14.55
2022-11-24T13:45:26.913Z,14.21
2022-11-24T13:51:10.447Z,14.02
2022-11-24T13:56:24.878Z,13.34
2022-11-24T14:01:32.365Z,13.07
2022-11-24T14:06:41.354Z,13.22
2022-11-24T14:11:47.946Z,13.24
2022-11-24T14:22:22.578Z,12.87
2022-11-24T14:27:31.324Z,12.87
2022-11-24T14:32:35.028Z,11.89
2022-11-24T14:37:40.084Z,12.16
2022-11-24T14:42:50.771Z,12.00
2022-11-24T14:47:55.612Z,11.82
2022-11-24T14:53:01.278Z,11.92
2022-11-24T14:58:21.527Z,11.89
2022-11-24T15:03:25.357Z,11.80
2022-11-24T15:08:36.763Z,11.52
2022-11-24T15:13:41.078Z,11.46
2022-11-24T15:18:47.014Z,11.41
2022-11-24T15:29:19.051Z,11.48
2022-11-24T15:34:22.845Z,11.48
2022-11-24T15:39:26.506Z,10.86
2022-11-24T15:44:31.704Z,10.69
2022-11-24T15:49:35.489Z,10.47
2022-11-24T15:54:39.228Z,10.44
2022-11-24T15:59:44.240Z,10.41
2022-11-24T16:04:48.029Z,10.35
2022-11-24T16:09:51.772Z,10.20
2022-11-24T16:14:56.875Z,10.17
2022-11-24T16:20:01.077Z,9.96
2022-11-24T16:25:05.308Z,9.91
2022-11-24T16:30:13.153Z,9.87
2022-11-24T16:35:17.144Z,9.57
2022-11-24T16:40:20.828Z,9.56
2022-11-24T16:45:26.011Z,9.57
2022-11-24T16:50:29.845Z,9.58
2022-11-24T16:55:33.598Z,9.50
2022-11-24T17:00:38.707Z,9.41
2022-11-24T17:05:42.648Z,9.38
2022-11-24T17:10:46.393Z,9.41
2022-11-24T17:15:54.346Z,9.34
2022-11-24T17:21:02.034Z,9.27
2022-11-24T17:26:11.292Z,9.27
2022-11-24T17:31:21.234Z,9.26
2022-11-24T17:36:25.325Z,9.15
2022-11-24T17:41:29.087Z,9.06
2022-11-24T17:46:34.212Z,8.98
2022-11-24T17:51:38.086Z,8.97
2022-11-24T17:56:42.755Z,8.90
2022-11-24T18:01:47.825Z,8.81
2022-11-24T18:06:51.719Z,8.84
2022-11-24T18:11:55.533Z,8.72
2022-11-24T18:17:00.707Z,8.72
2022-11-24T18:22:04.455Z,8.60
2022-11-24T18:27:08.356Z,8.61
2022-11-24T18:32:13.528Z,8.53
2022-11-24T18:37:17.615Z,8.49
2022-11-24T18:42:22.309Z,8.54
2022-11-24T18:47:27.405Z,8.42
2022-11-24T18:52:31.106Z,8.40
2022-11-24T18:57:34.820Z,8.37
2022-11-24T19:02:39.979Z,8.31
2022-11-24T19:07:43.837Z,8.32
2022-11-24T19:12:47.668Z,8.28
2022-11-24T19:17:52.748Z,8.28
2022-11-24T19:22:56.567Z,8.20
2022-11-24T19:28:00.294Z,8.13
2022-11-24T19:33:07.615Z,8.17
2022-11-24T19:38:14.976Z,8.18
2022-11-24T19:43:19.112Z,8.11
2022-11-24T19:48:24.233Z,8.09
2022-11-24T19:53:28.179Z,8.09
2022-11-24T19:58:32.217Z,8.08
2022-11-24T20:03:37.959Z,8.12
2022-11-24T20:08:42.951Z,8.18
2022-11-24T20:13:48.427Z,8.16
2022-11-24T20:18:55.126Z,8.21
2022-11-24T20:24:01.292Z,8.17
2022-11-24T20:29:05.552Z,8.13
2022-11-24T20:34:11.601Z,8.21
2022-11-24T20:39:17.413Z,8.21
2022-11-24T20:44:22.630Z,8.27
2022-11-24T20:49:28.806Z,8.26
2022-11-24T20:54:32.843Z,8.31
2022-11-24T20:59:36.911Z,8.32
2022-11-24T21:04:42.045Z,8.32
2022-11-24T21:09:45.802Z,8.33
2022-11-24T21:14:49.498Z,8.36
2022-11-24T21:19:59.583Z,8.39
2022-11-24T21:25:04.990Z,8.38
2022-11-24T21:30:10.095Z,8.34
2022-11-24T21:35:15.194Z,8.41
2022-11-24T21:40:19.021Z,8.41
2022-11-24T21:45:22.880Z,8.41
2022-11-24T21:50:28.299Z,8.40
2022-11-24T21:55:32.128Z,8.42
2022-11-24T22:00:35.871Z,8.45
2022-11-24T22:05:40.928Z,8.50
2022-11-24T22:10:44.723Z,8.51
2022-11-24T22:15:48.478Z,8.52
2022-11-24T22:20:56.483Z,8.58
2022-11-24T22:26:03.915Z,8.71
2022-11-24T22:31:09.863Z,8.69
2022-11-24T22:36:16.299Z,8.78
2022-11-24T22:41:20.381Z,8.86
2022-11-24T22:46:26.138Z,8.86
2022-11-24T22:51:33.558Z,8.87
2022-11-24T22:56:37.267Z,8.84
2022-11-24T23:01:41.118Z,8.84
2022-11-24T23:06:46.220Z,8.83
2022-11-24T23:11:50.099Z,8.70
2022-11-24T23:16:54.823Z,8.73
2022-11-24T23:21:59.981Z,8.68
2022-11-24T23:27:03.686Z,8.63
2022-11-24T23:32:07.486Z,8.61
2022-11-24T23:37:12.634Z,8.62
2022-11-24T23:42:16.325Z,8.54
2022-11-24T23:47:20.050Z,8.61
2022-11-24T23:52:25.107Z,8.63
2022-11-24T23:57:28.786Z,8.66
